createdAt,value
2019-03-12T00:00:17.212Z,2.50
2019-03-12T00:02:48.669Z,2.50
2019-03-12T00:05:19.197Z,2.50
2019-03-12T00:07:50.028Z,2.50
2019-03-12T00:10:20.584Z,2.60
2019-03-12T00:12:51.030Z,2.60
2019-03-12T00:15:21.468Z,2.60
2019-03-12T00:17:51.941Z,2.60
2019-03-12T00:20:22.396Z,2.60
2019-03-12T00:22:53.087Z,2.70
2019-03-12T00:25:23.561Z,2.60
2019-03-12T00:27:54.023Z,2.70
2019-03-12T00:30:24.484Z,2.70
2019-03-12T00:32:55.898Z,2.70
2019-03-12T00:35:26.658Z,2.70
2019-03-12T00:37:57.097Z,2.70
2019-03-12T00:40:27.524Z,2.70
2019-03-12T00:42:58.084Z,2.70
2019-03-12T00:45:29.594Z,2.70
2019-03-12T00:48:00.146Z,2.70
2019-03-12T00:50:30.625Z,2.70
2019-03-12T00:53:01.113Z,2.70
2019-03-12T00:55:31.668Z,2.70
2019-03-12T00:58:02.106Z,2.70
2019-03-12T01:00:32.585Z,2.60
2019-03-12T01:03:03.190Z,2.60
2019-03-12T01:05:33.988Z,2.60
2019-03-12T01:08:04.440Z,2.60
2019-03-12T01:10:34.956Z,2.60
2019-03-12T01:13:17.173Z,2.60
2019-03-12T01:15:47.624Z,2.60
2019-03-12T01:18:18.129Z,2.60
2019-03-12T01:20:49.152Z,2.60
2019-03-12T01:23:19.684Z,2.60
2019-03-12T01:25:50.385Z,2.60
2019-03-12T01:28:20.868Z,2.60
2019-03-12T01:30:51.316Z,2.60
2019-03-12T01:33:21.820Z,2.70
2019-03-12T01:35:52.256Z,2.70
2019-03-12T01:38:22.712Z,2.80
2019-03-12T01:40:53.460Z,2.80
2019-03-12T01:43:23.909Z,2.80
2019-03-12T01:45:54.485Z,2.90
2019-03-12T01:48:24.927Z,2.90
2019-03-12T01:50:55.486Z,2.90
2019-03-12T01:53:25.992Z,2.90
2019-03-12T01:55:56.483Z,2.90
2019-03-12T01:58:26.905Z,2.90
2019-03-12T02:00:57.346Z,2.90
2019-03-12T02:03:27.815Z,2.90
2019-03-12T02:05:58.296Z,2.80
2019-03-12T02:08:29.192Z,2.80
2019-03-12T02:10:59.974Z,2.80
2019-03-12T02:13:30.436Z,2.70
2019-03-12T02:16:00.920Z,2.70
2019-03-12T02:18:31.416Z,2.70
2019-03-12T02:21:01.853Z,2.60
2019-03-12T02:23:32.297Z,2.60
2019-03-12T02:26:02.849Z,2.60
2019-03-12T02:28:33.330Z,2.60
2019-03-12T02:31:03.995Z,2.60
2019-03-12T02:33:34.778Z,2.60
2019-03-12T02:36:05.244Z,2.50
2019-03-12T02:38:35.948Z,2.50
2019-03-12T02:41:06.492Z,2.50
2019-03-12T02:43:36.941Z,2.50
2019-03-12T02:46:07.374Z,2.50
2019-03-12T02:48:38.164Z,2.50
2019-03-12T02:51:08.630Z,2.50
2019-03-12T02:53:39.114Z,2.50
2019-03-12T02:56:09.605Z,2.50
2019-03-12T02:58:40.055Z,2.50
2019-03-12T03:01:10.587Z,2.40
2019-03-12T03:03:41.127Z,2.40
2019-03-12T03:06:18.292Z,2.40
2019-03-12T03:08:48.777Z,2.40
2019-03-12T03:11:19.189Z,2.30
2019-03-12T03:13:50.026Z,2.30
2019-03-12T03:16:23.914Z,2.30
2019-03-12T03:18:52.616Z,2.30
2019-03-12T03:21:23.148Z,2.20
2019-03-12T03:23:54.204Z,2.20
2019-03-12T03:26:24.740Z,2.20
2019-03-12T03:28:55.554Z,2.20
2019-03-12T03:31:25.999Z,2.10
2019-03-12T03:33:57.163Z,2.10
2019-03-12T03:36:27.989Z,2.10
2019-03-12T03:38:58.449Z,2.10
2019-03-12T03:41:29.336Z,2.10
2019-03-12T03:44:00.504Z,2.10
2019-03-12T03:46:31.442Z,2.10
2019-03-12T03:49:02.241Z,2.10
2019-03-12T03:51:33.112Z,2.00
2019-03-12T03:54:03.883Z,2.00
2019-03-12T03:56:34.694Z,2.00
2019-03-12T03:59:06.573Z,2.00
2019-03-12T04:01:37.125Z,2.00
2019-03-12T04:04:07.573Z,2.00
2019-03-12T04:06:38.040Z,2.10
2019-03-12T04:09:08.474Z,2.10
2019-03-12T04:11:39.427Z,2.10
2019-03-12T04:14:10.950Z,2.10
2019-03-12T04:16:41.393Z,2.10
2019-03-12T04:19:11.829Z,2.10
2019-03-12T04:21:42.669Z,2.10
2019-03-12T04:24:13.108Z,2.10
2019-03-12T04:26:43.656Z,2.10
2019-03-12T04:29:14.129Z,2.00
2019-03-12T04:31:44.606Z,2.00
2019-03-12T04:34:17.432Z,2.00
2019-03-12T04:36:49.322Z,2.00
2019-03-12T04:39:19.789Z,2.00
2019-03-12T04:41:50.224Z,2.00
2019-03-12T04:44:21.044Z,2.00
2019-03-12T04:46:51.485Z,2.00
2019-03-12T04:49:22.121Z,2.00
2019-03-12T04:51:52.545Z,1.90
2019-03-12T04:54:23.088Z,1.90
2019-03-12T04:56:53.854Z,1.90
2019-03-12T04:59:24.301Z,1.80
2019-03-12T05:01:54.751Z,1.80
2019-03-12T05:04:25.200Z,1.70
2019-03-12T05:06:55.682Z,1.80
2019-03-12T05:09:26.106Z,1.70
2019-03-12T05:11:56.541Z,1.70
2019-03-12T05:14:34.327Z,1.70
2019-03-12T05:17:33.821Z,1.70
2019-03-12T05:20:05.122Z,1.60
2019-03-12T05:22:35.714Z,1.60
2019-03-12T05:25:07.076Z,1.60
2019-03-12T05:27:37.545Z,1.60
2019-03-12T05:30:14.275Z,1.50
2019-03-12T05:32:57.005Z,1.50
2019-03-12T05:35:27.432Z,1.50
2019-03-12T05:37:57.866Z,1.40
2019-03-12T05:40:28.319Z,1.40
2019-03-12T05:42:58.772Z,1.40
2019-03-12T05:45:33.622Z,1.40
2019-03-12T05:48:04.201Z,1.50
2019-03-12T05:50:34.636Z,1.50
2019-03-12T05:53:12.870Z,1.50
2019-03-12T05:55:43.348Z,1.50
2019-03-12T05:58:13.948Z,1.50
2019-03-12T06:00:44.503Z,1.60
2019-03-12T06:03:15.051Z,1.60
2019-03-12T06:05:45.497Z,1.60
2019-03-12T06:08:16.354Z,1.60
2019-03-12T06:10:46.858Z,1.60
2019-03-12T06:13:17.400Z,1.60
2019-03-12T06:15:48.329Z,1.60
2019-03-12T06:18:19.896Z,1.60
2019-03-12T06:20:50.335Z,1.70
2019-03-12T06:23:21.498Z,1.70
2019-03-12T06:25:51.937Z,1.70
2019-03-12T06:28:23.202Z,1.70
2019-03-12T06:31:05.053Z,1.70
2019-03-12T06:33:49.281Z,1.70
2019-03-12T06:36:35.177Z,1.70
2019-03-12T06:39:27.773Z,1.70
2019-03-12T06:42:16.465Z,1.60
2019-03-12T06:44:56.416Z,1.70
2019-03-12T06:47:42.212Z,1.70
2019-03-12T06:50:18.381Z,1.70
2019-03-12T06:53:08.374Z,1.70
2019-03-12T06:55:55.532Z,1.70
2019-03-12T06:58:38.080Z,1.70
2019-03-12T07:01:24.372Z,1.80
2019-03-12T07:04:15.554Z,1.90
2019-03-12T07:07:11.038Z,2.00
2019-03-12T07:09:52.798Z,2.10
2019-03-12T07:12:53.629Z,2.20
2019-03-12T07:15:45.657Z,2.30
2019-03-12T07:18:34.040Z,2.50
2019-03-12T07:21:25.212Z,2.60
2019-03-12T07:24:13.689Z,2.70
2019-03-12T07:27:00.892Z,2.80
2019-03-12T07:30:08.804Z,2.90
2019-03-12T07:32:56.853Z,3.00
2019-03-12T07:35:46.545Z,3.10
2019-03-12T07:38:46.774Z,3.20
2019-03-12T07:41:41.104Z,3.30
2019-03-12T07:44:23.270Z,3.40
2019-03-12T07:47:05.799Z,3.50
2019-03-12T07:49:53.129Z,3.60
2019-03-12T07:52:44.395Z,3.70
2019-03-12T07:55:31.414Z,3.70
2019-03-12T07:58:19.879Z,3.80
2019-03-12T08:01:06.601Z,3.90
2019-03-12T08:03:59.255Z,4.00
2019-03-12T08:06:46.546Z,4.00
2019-03-12T08:09:35.011Z,4.10
2019-03-12T08:12:22.319Z,4.20
2019-03-12T08:14:59.936Z,4.30
2019-03-12T08:17:45.374Z,4.40
2019-03-12T08:20:33.751Z,4.40
2019-03-12T08:23:22.120Z,4.50
2019-03-12T08:26:09.437Z,4.60
2019-03-12T08:29:00.560Z,4.60
2019-03-12T08:31:47.478Z,4.70
2019-03-12T08:34:29.617Z,4.80
2019-03-12T08:37:18.968Z,4.90
2019-03-12T08:39:55.283Z,5.00
2019-03-12T08:42:54.557Z,5.10
2019-03-12T08:45:38.170Z,5.10
2019-03-12T08:48:32.206Z,5.20
2019-03-12T08:51:26.502Z,5.30
2019-03-12T08:54:13.909Z,5.30
2019-03-12T08:56:55.967Z,5.40
2019-03-12T08:59:50.341Z,5.50
2019-03-12T09:02:47.594Z,5.60
2019-03-12T09:05:39.161Z,5.70
2019-03-12T09:08:26.153Z,5.80
2019-03-12T09:11:04.518Z,5.90
2019-03-12T09:14:03.871Z,6.00
2019-03-12T09:16:54.012Z,6.00
2019-03-12T09:19:48.218Z,6.10
2019-03-12T09:22:40.055Z,6.20
2019-03-12T09:25:25.056Z,6.30
2019-03-12T09:28:23.014Z,6.40
2019-03-12T09:31:06.305Z,6.50
2019-03-12T09:33:47.140Z,6.70
2019-03-12T09:36:28.825Z,6.70
2019-03-12T09:39:09.586Z,6.80
2019-03-12T09:41:57.212Z,6.90
2019-03-12T09:44:39.840Z,6.90
2019-03-12T09:47:17.185Z,6.90
2019-03-12T09:50:08.686Z,7.00
2019-03-12T09:53:04.688Z,7.20
2019-03-12T09:56:00.212Z,7.30
2019-03-12T09:58:42.046Z,7.60
2019-03-12T10:01:22.921Z,7.80
2019-03-12T10:04:10.502Z,7.90
2019-03-12T10:06:52.450Z,8.10
2019-03-12T10:09:40.883Z,8.40
2019-03-12T10:12:35.362Z,8.70
2019-03-12T10:15:22.861Z,9.10
2019-03-12T10:18:26.749Z,9.40
2019-03-12T10:21:04.692Z,9.70
2019-03-12T10:23:40.380Z,10.00
2019-03-12T10:26:44.157Z,10.40
2019-03-12T10:29:35.352Z,10.80
2019-03-12T10:32:10.909Z,11.20
2019-03-12T10:34:58.057Z,11.90
2019-03-12T10:37:46.282Z,12.20
2019-03-12T10:40:54.318Z,12.50
2019-03-12T10:43:46.441Z,12.50
2019-03-12T10:46:37.250Z,12.50
2019-03-12T10:49:07.845Z,12.40
2019-03-12T10:51:38.300Z,12.30
2019-03-12T10:54:08.765Z,12.30
2019-03-12T10:56:39.239Z,12.50
2019-03-12T10:59:09.760Z,12.60
2019-03-12T11:01:40.570Z,12.80
2019-03-12T11:04:11.696Z,13.10
2019-03-12T11:06:42.314Z,13.30
2019-03-12T11:09:12.790Z,13.60
2019-03-12T11:11:43.323Z,13.90
2019-03-12T11:14:14.129Z,14.50
2019-03-12T11:16:45.114Z,14.90
2019-03-12T11:19:16.617Z,15.70
2019-03-12T11:21:47.094Z,16.50
2019-03-12T11:24:17.574Z,16.90
2019-03-12T11:26:48.233Z,16.80
2019-03-12T11:29:18.783Z,16.70
2019-03-12T11:31:49.266Z,16.40
2019-03-12T11:34:19.721Z,16.00
2019-03-12T11:36:50.229Z,15.50
2019-03-12T11:39:20.702Z,15.20
2019-03-12T11:41:51.163Z,14.80
2019-03-12T11:44:21.734Z,14.40
2019-03-12T11:46:52.474Z,14.10
2019-03-12T11:49:23.228Z,14.30
2019-03-12T11:51:53.984Z,15.00
2019-03-12T11:54:24.436Z,16.00
2019-03-12T11:56:54.942Z,16.40
2019-03-12T11:59:26.037Z,16.50
2019-03-12T12:01:57.826Z,16.60
2019-03-12T12:04:28.281Z,16.60
2019-03-12T12:06:58.780Z,16.40
2019-03-12T12:09:29.354Z,16.40
2019-03-12T12:11:59.945Z,16.00
2019-03-12T12:14:31.677Z,15.70
2019-03-12T12:17:02.284Z,15.50
2019-03-12T12:19:32.674Z,15.20
2019-03-12T12:22:03.261Z,15.10
2019-03-12T12:24:33.849Z,15.10
2019-03-12T12:27:04.830Z,15.20
2019-03-12T12:29:35.272Z,15.40
2019-03-12T12:32:05.840Z,16.10
2019-03-12T12:34:36.545Z,16.80
2019-03-12T12:37:07.007Z,16.90
2019-03-12T12:39:37.547Z,16.50
2019-03-12T12:42:08.028Z,16.20
2019-03-12T12:44:38.517Z,15.80
2019-03-12T12:47:09.353Z,15.60
2019-03-12T12:49:39.808Z,15.40
2019-03-12T12:52:11.669Z,15.30
2019-03-12T12:54:42.522Z,15.10
2019-03-12T12:57:13.303Z,15.00
2019-03-12T12:59:43.750Z,15.00
2019-03-12T13:02:14.597Z,14.70
2019-03-12T13:04:45.040Z,14.50
2019-03-12T13:07:15.706Z,14.20
2019-03-12T13:09:46.790Z,14.00
2019-03-12T13:12:17.256Z,13.90
2019-03-12T13:14:47.675Z,13.80
2019-03-12T13:17:18.410Z,13.50
2019-03-12T13:19:48.910Z,13.30
2019-03-12T13:22:19.361Z,13.20
2019-03-12T13:24:50.101Z,13.20
2019-03-12T13:27:20.669Z,13.40
2019-03-12T13:29:51.219Z,13.40
2019-03-12T13:32:21.730Z,13.30
2019-03-12T13:34:52.342Z,13.20
2019-03-12T13:37:22.825Z,13.00
2019-03-12T13:39:53.290Z,12.90
2019-03-12T13:42:23.781Z,12.80
2019-03-12T13:44:54.388Z,13.00
2019-03-12T13:47:28.719Z,13.10
2019-03-12T13:49:57.752Z,13.20
2019-03-12T13:52:28.565Z,13.20
2019-03-12T13:54:59.486Z,13.20
2019-03-12T13:57:29.920Z,13.30
2019-03-12T14:00:00.453Z,13.20
2019-03-12T14:02:30.988Z,13.20
2019-03-12T14:05:01.440Z,13.10
2019-03-12T14:07:31.888Z,12.90
2019-03-12T14:10:02.348Z,12.80
2019-03-12T14:12:33.242Z,12.90
2019-03-12T14:15:03.985Z,12.90
2019-03-12T14:17:34.820Z,13.00
2019-03-12T14:20:27.257Z,13.10
2019-03-12T14:22:57.729Z,13.10
2019-03-12T14:25:28.162Z,13.20
2019-03-12T14:27:58.797Z,13.10
2019-03-12T14:30:29.633Z,13.20
2019-03-12T14:33:00.168Z,13.70
2019-03-12T14:35:30.630Z,13.90
2019-03-12T14:38:01.121Z,14.00
2019-03-12T14:40:31.627Z,13.90
2019-03-12T14:43:02.125Z,13.80
2019-03-12T14:45:33.817Z,13.70
2019-03-12T14:48:04.664Z,13.60
2019-03-12T14:50:35.514Z,13.50
2019-03-12T14:53:21.039Z,13.50
2019-03-12T14:55:40.570Z,13.50
2019-03-12T14:58:11.017Z,13.40
2019-03-12T15:00:53.198Z,13.40
2019-03-12T15:03:23.881Z,13.40
2019-03-12T15:05:54.323Z,13.60
2019-03-12T15:08:24.805Z,13.80
2019-03-12T15:10:56.424Z,13.80
2019-03-12T15:13:27.654Z,13.80
2019-03-12T15:15:58.104Z,13.90
2019-03-12T15:18:28.654Z,13.90
2019-03-12T15:20:59.088Z,14.00
2019-03-12T15:23:29.590Z,14.10
2019-03-12T15:26:00.085Z,14.10
2019-03-12T15:28:30.540Z,13.80
2019-03-12T15:31:02.446Z,13.70
2019-03-12T15:33:34.433Z,13.70
2019-03-12T15:36:04.905Z,13.80
2019-03-12T15:38:35.332Z,13.70
2019-03-12T15:41:05.759Z,13.50
2019-03-12T15:43:36.212Z,13.20
2019-03-12T15:46:06.749Z,13.00
2019-03-12T15:48:37.218Z,13.00
2019-03-12T15:51:07.654Z,12.90
2019-03-12T15:53:38.117Z,13.00
2019-03-12T15:56:08.922Z,12.90
2019-03-12T15:58:39.374Z,12.70
2019-03-12T16:01:10.093Z,12.50
2019-03-12T16:03:42.036Z,12.40
2019-03-12T16:06:12.668Z,12.20
2019-03-12T16:08:43.109Z,12.10
2019-03-12T16:11:13.564Z,11.90
2019-03-12T16:13:44.053Z,11.70
2019-03-12T16:16:14.487Z,11.60
2019-03-12T16:18:44.921Z,11.40
2019-03-12T16:21:15.442Z,11.20
2019-03-12T16:23:45.988Z,11.00
2019-03-12T16:26:16.427Z,10.90
2019-03-12T16:28:46.866Z,10.70
2019-03-12T16:31:17.326Z,10.60
2019-03-12T16:33:47.760Z,10.50
2019-03-12T16:36:18.194Z,10.40
2019-03-12T16:38:48.666Z,10.30
2019-03-12T16:41:19.152Z,10.20
2019-03-12T16:43:49.674Z,10.10
2019-03-12T16:46:20.172Z,10.00
2019-03-12T16:48:50.838Z,10.00
2019-03-12T16:51:21.270Z,9.90
2019-03-12T16:53:51.683Z,9.80
2019-03-12T16:56:22.382Z,9.80
2019-03-12T16:58:52.845Z,9.70
2019-03-12T17:01:23.292Z,9.70
2019-03-12T17:03:53.792Z,9.60
2019-03-12T17:06:24.431Z,9.50
2019-03-12T17:08:56.028Z,9.50
2019-03-12T17:11:26.533Z,9.40
2019-03-12T17:13:56.972Z,9.40
2019-03-12T17:16:27.497Z,9.30
2019-03-12T17:18:58.413Z,9.20
2019-03-12T17:21:28.926Z,9.10
2019-03-12T17:23:59.452Z,9.10
2019-03-12T17:26:30.096Z,9.00
2019-03-12T17:29:00.596Z,9.00
2019-03-12T17:31:31.794Z,8.90
2019-03-12T17:34:02.481Z,8.80
2019-03-12T17:36:32.916Z,8.70
2019-03-12T17:39:04.621Z,8.60
2019-03-12T17:41:37.236Z,8.50
2019-03-12T17:44:07.850Z,8.50
2019-03-12T17:46:38.408Z,8.40
2019-03-12T17:49:08.897Z,8.30
2019-03-12T17:51:39.759Z,8.20
2019-03-12T17:54:10.657Z,8.20
2019-03-12T17:56:41.120Z,8.10
2019-03-12T17:59:11.617Z,8.10
2019-03-12T18:01:42.288Z,8.10
2019-03-12T18:04:12.840Z,8.00
2019-03-12T18:06:43.326Z,8.00
2019-03-12T18:09:14.918Z,8.00
2019-03-12T18:11:45.465Z,8.00
2019-03-12T18:14:15.985Z,8.00
2019-03-12T18:16:46.472Z,8.00
2019-03-12T18:19:17.109Z,8.00
2019-03-12T18:21:47.797Z,8.00
2019-03-12T18:24:18.720Z,8.00
2019-03-12T18:26:49.388Z,8.00
2019-03-12T18:29:20.317Z,8.00
2019-03-12T18:31:50.910Z,8.00
2019-03-12T18:34:22.587Z,8.00
2019-03-12T18:36:53.349Z,8.00
2019-03-12T18:39:23.877Z,8.00
2019-03-12T18:41:55.892Z,8.10
2019-03-12T18:44:26.565Z,8.20
2019-03-12T18:46:57.001Z,8.40
2019-03-12T18:49:27.482Z,8.50
2019-03-12T18:51:58.473Z,8.50
2019-03-12T18:54:30.315Z,8.60
2019-03-12T18:57:00.813Z,8.70
2019-03-12T18:59:31.456Z,8.80
2019-03-12T19:02:02.058Z,8.80
2019-03-12T19:04:32.659Z,8.90
2019-03-12T19:07:03.117Z,9.00
2019-03-12T19:09:33.580Z,9.00
2019-03-12T19:12:04.218Z,9.10
2019-03-12T19:14:34.866Z,9.10
2019-03-12T19:17:05.717Z,9.20
2019-03-12T19:19:36.317Z,9.20
2019-03-12T19:22:06.760Z,9.20
2019-03-12T19:24:38.893Z,9.20
2019-03-12T19:27:09.736Z,9.30
2019-03-12T19:29:40.389Z,9.30
2019-03-12T19:32:20.560Z,9.30
2019-03-12T19:34:51.449Z,9.30
2019-03-12T19:37:22.326Z,9.30
2019-03-12T19:39:53.114Z,9.30
2019-03-12T19:42:23.648Z,9.30
2019-03-12T19:44:54.541Z,9.30
2019-03-12T19:47:25.405Z,9.30
2019-03-12T19:49:55.987Z,9.30
2019-03-12T19:52:27.099Z,9.30
2019-03-12T19:54:57.848Z,9.30
2019-03-12T19:57:28.565Z,9.40
2019-03-12T19:59:59.599Z,9.40
2019-03-12T20:02:30.740Z,9.40
2019-03-12T20:05:01.755Z,9.50
2019-03-12T20:07:33.554Z,9.50
2019-03-12T20:10:45.055Z,9.50
2019-03-12T20:14:15.241Z,9.60
2019-03-12T20:17:41.406Z,9.60
2019-03-12T20:21:23.982Z,9.60
2019-03-12T20:24:57.348Z,9.60
2019-03-12T20:28:19.495Z,9.50
2019-03-12T20:32:04.791Z,9.50
2019-03-12T20:35:27.553Z,9.40
2019-03-12T20:38:41.957Z,9.30
2019-03-12T20:41:51.263Z,9.20
2019-03-12T20:45:12.244Z,9.20
2019-03-12T20:48:21.109Z,9.10
2019-03-12T20:51:30.125Z,9.00
2019-03-12T20:54:35.304Z,8.90
2019-03-12T20:57:42.332Z,8.90
2019-03-12T21:01:13.802Z,8.80
2019-03-12T21:04:13.884Z,8.80
2019-03-12T21:07:20.369Z,8.70
2019-03-12T21:10:27.198Z,8.70
2019-03-12T21:13:54.381Z,8.70
2019-03-12T21:17:11.077Z,8.70
2019-03-12T21:20:36.852Z,8.70
2019-03-12T21:23:39.325Z,8.80
2019-03-12T21:26:49.547Z,8.90
2019-03-12T21:29:42.360Z,9.00
2019-03-12T21:32:15.008Z,9.10
2019-03-12T21:34:45.833Z,9.10
2019-03-12T21:37:17.512Z,9.20
2019-03-12T21:39:55.174Z,9.20
2019-03-12T21:42:21.358Z,9.30
2019-03-12T21:44:51.950Z,9.30
2019-03-12T21:47:22.862Z,9.40
2019-03-12T21:49:53.367Z,9.40
2019-03-12T21:52:24.871Z,9.40
2019-03-12T21:54:55.460Z,9.40
2019-03-12T21:57:26.008Z,9.40
2019-03-12T21:59:56.650Z,9.40
2019-03-12T22:02:27.270Z,9.40
2019-03-12T22:04:58.288Z,9.40
2019-03-12T22:07:29.885Z,9.40
2019-03-12T22:10:00.379Z,9.40
2019-03-12T22:12:31.054Z,9.40
2019-03-12T22:15:01.545Z,9.50
2019-03-12T22:17:32.480Z,9.50
2019-03-12T22:20:02.924Z,9.50
2019-03-12T22:22:59.433Z,9.50
2019-03-12T22:25:29.988Z,9.50
2019-03-12T22:28:00.445Z,9.40
2019-03-12T22:30:31.253Z,9.40
2019-03-12T22:33:01.816Z,9.40
2019-03-12T22:35:32.776Z,9.40
2019-03-12T22:38:03.272Z,9.40
2019-03-12T22:40:33.834Z,9.30
2019-03-12T22:43:04.580Z,9.40
2019-03-12T22:45:35.089Z,9.30
2019-03-12T22:48:05.725Z,9.30
2019-03-12T22:50:36.363Z,9.30
2019-03-12T22:53:06.870Z,9.30
2019-03-12T22:55:37.387Z,9.40
2019-03-12T22:58:07.994Z,9.30
2019-03-12T23:00:57.500Z,9.30
2019-03-12T23:03:45.888Z,9.30
2019-03-12T23:06:34.397Z,9.30
2019-03-12T23:09:23.563Z,9.30
2019-03-12T23:11:55.673Z,9.30
2019-03-12T23:14:26.314Z,9.30
2019-03-12T23:16:56.837Z,9.40
2019-03-12T23:19:27.349Z,9.40
2019-03-12T23:21:57.985Z,9.40
2019-03-12T23:24:29.679Z,9.30
2019-03-12T23:27:00.368Z,9.20
2019-03-12T23:29:30.878Z,9.10
2019-03-12T23:32:01.416Z,9.00
2019-03-12T23:34:31.840Z,9.00
2019-03-12T23:37:03.286Z,9.00
2019-03-12T23:39:33.740Z,8.90
2019-03-12T23:42:04.380Z,8.90
2019-03-12T23:44:34.947Z,8.90
2019-03-12T23:47:05.564Z,8.90
2019-03-12T23:49:36.112Z,8.90
2019-03-12T23:52:06.770Z,8.90
2019-03-12T23:54:37.741Z,8.90
2019-03-12T23:57:08.329Z,8.80
2019-03-12T23:59:39.875Z,8.90
